sensor_id;sensor_type;location;lat;lon;timestamp;P1;durP1;ratioP1;P2;durP2;ratioP2
51618;SDS011;38518;53.164;5.430;2022-11-20T00:00:46;13.10;;;9.57;;
51618;SDS011;38518;53.164;5.430;2022-11-20T00:03:12;13.27;;;9.63;;
51618;SDS011;38518;53.164;5.430;2022-11-20T00:05:38;15.10;;;9.60;;
51618;SDS011;38518;53.164;5.430;2022-11-20T00:08:03;11.70;;;8.98;;
51618;SDS011;38518;53.164;5.430;2022-11-20T00:10:29;13.70;;;8.75;;
51618;SDS011;38518;53.164;5.430;2022-11-20T00:12:57;14.52;;;8.93;;
51618;SDS011;38518;53.164;5.430;2022-11-20T00:15:23;13.68;;;9.68;;
51618;SDS011;38518;53.164;5.430;2022-11-20T00:17:49;14.20;;;8.70;;
51618;SDS011;38518;53.164;5.430;2022-11-20T00:20:15;12.98;;;8.45;;
51618;SDS011;38518;53.164;5.430;2022-11-20T00:22:40;12.43;;;8.18;;
51618;SDS011;38518;53.164;5.430;2022-11-20T00:25:06;11.90;;;7.88;;
51618;SDS011;38518;53.164;5.430;2022-11-20T00:27:32;14.07;;;9.23;;
51618;SDS011;38518;53.164;5.430;2022-11-20T00:29:58;12.00;;;7.95;;
51618;SDS011;38518;53.164;5.430;2022-11-20T00:32:23;12.98;;;11.05;;
51618;SDS011;38518;53.164;5.430;2022-11-20T00:34:49;13.40;;;9.40;;
51618;SDS011;38518;53.164;5.430;2022-11-20T00:37:15;12.63;;;9.02;;
51618;SDS011;38518;53.164;5.430;2022-11-20T00:39:40;12.65;;;8.40;;
51618;SDS011;38518;53.164;5.430;2022-11-20T00:42:06;12.98;;;8.73;;
51618;SDS011;38518;53.164;5.430;2022-11-20T00:44:32;12.00;;;8.95;;
51618;SDS011;38518;53.164;5.430;2022-11-20T00:46:58;11.90;;;8.57;;
51618;SDS011;38518;53.164;5.430;2022-11-20T00:49:23;12.07;;;7.55;;
51618;SDS011;38518;53.164;5.430;2022-11-20T00:51:49;12.02;;;8.52;;
51618;SDS011;38518;53.164;5.430;2022-11-20T00:54:15;13.98;;;9.10;;
51618;SDS011;38518;53.164;5.430;2022-11-20T00:56:40;11.10;;;8.13;;
51618;SDS011;38518;53.164;5.430;2022-11-20T00:59:08;12.50;;;7.80;;
51618;SDS011;38518;53.164;5.430;2022-11-20T01:01:34;12.50;;;8.40;;
51618;SDS011;38518;53.164;5.430;2022-11-20T01:04:01;13.98;;;9.60;;
51618;SDS011;38518;53.164;5.430;2022-11-20T01:06:29;14.10;;;9.43;;
51618;SDS011;38518;53.164;5.430;2022-11-20T01:08:57;14.60;;;9.07;;
51618;SDS011;38518;53.164;5.430;2022-11-20T01:11:26;11.60;;;8.32;;
51618;SDS011;38518;53.164;5.430;2022-11-20T01:13:53;12.65;;;8.88;;
51618;SDS011;38518;53.164;5.430;2022-11-20T01:16:21;13.70;;;9.95;;
51618;SDS011;38518;53.164;5.430;2022-11-20T01:18:51;12.88;;;8.73;;
51618;SDS011;38518;53.164;5.430;2022-11-20T01:21:22;13.70;;;9.05;;
51618;SDS011;38518;53.164;5.430;2022-11-20T01:23:50;15.25;;;9.20;;
51618;SDS011;38518;53.164;5.430;2022-11-20T01:26:21;14.80;;;9.82;;
51618;SDS011;38518;53.164;5.430;2022-11-20T01:28:48;14.32;;;9.45;;
51618;SDS011;38518;53.164;5.430;2022-11-20T01:31:18;12.98;;;9.27;;
51618;SDS011;38518;53.164;5.430;2022-11-20T01:33:47;14.30;;;9.43;;
51618;SDS011;38518;53.164;5.430;2022-11-20T01:36:15;12.55;;;8.88;;
51618;SDS011;38518;53.164;5.430;2022-11-20T01:38:42;12.77;;;8.35;;
51618;SDS011;38518;53.164;5.430;2022-11-20T01:41:09;12.98;;;8.70;;
51618;SDS011;38518;53.164;5.430;2022-11-20T01:43:36;13.98;;;8.95;;
51618;SDS011;38518;53.164;5.430;2022-11-20T01:46:03;15.30;;;8.73;;
51618;SDS011;38518;53.164;5.430;2022-11-20T01:48:51;14.27;;;9.05;;
51618;SDS011;38518;53.164;5.430;2022-11-20T01:51:45;13.15;;;8.90;;
51618;SDS011;38518;53.164;5.430;2022-11-20T01:54:17;14.43;;;9.35;;
51618;SDS011;38518;53.164;5.430;2022-11-20T01:57:00;14.90;;;9.63;;
51618;SDS011;38518;53.164;5.430;2022-11-20T01:59:26;13.00;;;9.18;;
51618;SDS011;38518;53.164;5.430;2022-11-20T02:01:54;13.25;;;8.80;;
51618;SDS011;38518;53.164;5.430;2022-11-20T02:04:20;14.18;;;8.60;;
51618;SDS011;38518;53.164;5.430;2022-11-20T02:06:48;12.98;;;8.57;;
51618;SDS011;38518;53.164;5.430;2022-11-20T02:09:18;14.00;;;8.98;;
51618;SDS011;38518;53.164;5.430;2022-11-20T02:11:44;12.60;;;8.30;;
51618;SDS011;38518;53.164;5.430;2022-11-20T02:14:10;12.52;;;8.20;;
51618;SDS011;38518;53.164;5.430;2022-11-20T02:16:37;13.63;;;8.80;;
51618;SDS011;38518;53.164;5.430;2022-11-20T02:19:06;13.35;;;8.40;;
51618;SDS011;38518;53.164;5.430;2022-11-20T02:21:47;12.10;;;8.30;;
51618;SDS011;38518;53.164;5.430;2022-11-20T02:24:21;12.35;;;7.70;;
51618;SDS011;38518;53.164;5.430;2022-11-20T02:26:59;13.88;;;8.65;;
51618;SDS011;38518;53.164;5.430;2022-11-20T02:32:19;12.55;;;8.38;;
51618;SDS011;38518;53.164;5.430;2022-11-20T02:34:46;14.70;;;8.25;;
51618;SDS011;38518;53.164;5.430;2022-11-20T02:37:12;13.38;;;8.18;;
51618;SDS011;38518;53.164;5.430;2022-11-20T02:39:39;12.27;;;8.07;;
51618;SDS011;38518;53.164;5.430;2022-11-20T02:42:05;13.90;;;8.60;;
51618;SDS011;38518;53.164;5.430;2022-11-20T02:44:31;11.80;;;8.45;;
51618;SDS011;38518;53.164;5.430;2022-11-20T02:46:57;14.18;;;9.05;;
51618;SDS011;38518;53.164;5.430;2022-11-20T02:49:24;11.75;;;8.27;;
51618;SDS011;38518;53.164;5.430;2022-11-20T02:51:50;14.30;;;8.05;;
51618;SDS011;38518;53.164;5.430;2022-11-20T02:54:16;12.50;;;7.97;;
51618;SDS011;38518;53.164;5.430;2022-11-20T02:56:42;12.25;;;7.72;;
51618;SDS011;38518;53.164;5.430;2022-11-20T02:59:08;12.32;;;8.45;;
51618;SDS011;38518;53.164;5.430;2022-11-20T03:01:35;12.40;;;7.85;;
51618;SDS011;38518;53.164;5.430;2022-11-20T03:04:01;10.98;;;8.02;;
51618;SDS011;38518;53.164;5.430;2022-11-20T03:06:27;14.27;;;8.55;;
51618;SDS011;38518;53.164;5.430;2022-11-20T03:08:52;13.10;;;8.57;;
51618;SDS011;38518;53.164;5.430;2022-11-20T03:11:18;17.05;;;9.27;;
51618;SDS011;38518;53.164;5.430;2022-11-20T03:13:44;12.73;;;8.50;;
51618;SDS011;38518;53.164;5.430;2022-11-20T03:16:10;12.70;;;8.75;;
51618;SDS011;38518;53.164;5.430;2022-11-20T03:18:41;11.98;;;8.25;;
51618;SDS011;38518;53.164;5.430;2022-11-20T03:21:07;14.25;;;8.90;;
51618;SDS011;38518;53.164;5.430;2022-11-20T03:23:34;15.50;;;9.20;;
51618;SDS011;38518;53.164;5.430;2022-11-20T03:26:13;12.60;;;8.55;;
51618;SDS011;38518;53.164;5.430;2022-11-20T03:28:48;13.25;;;9.00;;
51618;SDS011;38518;53.164;5.430;2022-11-20T03:31:15;14.23;;;9.20;;
51618;SDS011;38518;53.164;5.430;2022-11-20T03:33:42;13.95;;;8.85;;
51618;SDS011;38518;53.164;5.430;2022-11-20T03:36:09;15.45;;;9.27;;
51618;SDS011;38518;53.164;5.430;2022-11-20T03:38:37;13.43;;;8.30;;
51618;SDS011;38518;53.164;5.430;2022-11-20T03:41:10;15.30;;;9.18;;
51618;SDS011;38518;53.164;5.430;2022-11-20T03:43:38;15.80;;;9.43;;
51618;SDS011;38518;53.164;5.430;2022-11-20T03:46:04;14.43;;;8.55;;
51618;SDS011;38518;53.164;5.430;2022-11-20T03:48:30;13.80;;;8.30;;
51618;SDS011;38518;53.164;5.430;2022-11-20T03:51:06;14.73;;;9.68;;
51618;SDS011;38518;53.164;5.430;2022-11-20T03:53:46;12.70;;;8.30;;
51618;SDS011;38518;53.164;5.430;2022-11-20T03:56:14;14.13;;;8.88;;
51618;SDS011;38518;53.164;5.430;2022-11-20T03:58:42;13.05;;;8.75;;
51618;SDS011;38518;53.164;5.430;2022-11-20T04:01:09;14.10;;;9.48;;
51618;SDS011;38518;53.164;5.430;2022-11-20T04:03:37;15.88;;;10.07;;
51618;SDS011;38518;53.164;5.430;2022-11-20T04:06:08;13.85;;;9.52;;
51618;SDS011;38518;53.164;5.430;2022-11-20T04:08:40;12.50;;;9.07;;
51618;SDS011;38518;53.164;5.430;2022-11-20T04:11:13;13.27;;;8.57;;
51618;SDS011;38518;53.164;5.430;2022-11-20T04:13:56;12.88;;;8.77;;
51618;SDS011;38518;53.164;5.430;2022-11-20T04:16:24;14.18;;;9.15;;
51618;SDS011;38518;53.164;5.430;2022-11-20T04:18:52;13.23;;;9.13;;
51618;SDS011;38518;53.164;5.430;2022-11-20T04:21:22;14.80;;;8.85;;
51618;SDS011;38518;53.164;5.430;2022-11-20T04:23:49;13.48;;;8.82;;
51618;SDS011;38518;53.164;5.430;2022-11-20T04:26:16;13.95;;;8.80;;
51618;SDS011;38518;53.164;5.430;2022-11-20T04:28:41;14.05;;;9.23;;
51618;SDS011;38518;53.164;5.430;2022-11-20T04:31:09;14.05;;;8.43;;
51618;SDS011;38518;53.164;5.430;2022-11-20T04:33:37;14.20;;;9.10;;
51618;SDS011;38518;53.164;5.430;2022-11-20T04:36:22;14.20;;;8.68;;
51618;SDS011;38518;53.164;5.430;2022-11-20T04:38:50;12.43;;;8.38;;
51618;SDS011;38518;53.164;5.430;2022-11-20T04:41:20;12.20;;;8.85;;
51618;SDS011;38518;53.164;5.430;2022-11-20T04:43:47;14.95;;;9.85;;
51618;SDS011;38518;53.164;5.430;2022-11-20T04:46:15;12.98;;;8.48;;
51618;SDS011;38518;53.164;5.430;2022-11-20T04:48:41;15.50;;;9.98;;
51618;SDS011;38518;53.164;5.430;2022-11-20T04:51:07;15.27;;;9.82;;
51618;SDS011;38518;53.164;5.430;2022-11-20T04:53:32;13.52;;;8.65;;
51618;SDS011;38518;53.164;5.430;2022-11-20T04:55:59;15.15;;;9.73;;
51618;SDS011;38518;53.164;5.430;2022-11-20T04:58:25;13.80;;;9.18;;
51618;SDS011;38518;53.164;5.430;2022-11-20T05:00:51;13.20;;;8.68;;
51618;SDS011;38518;53.164;5.430;2022-11-20T05:03:17;13.50;;;8.73;;
51618;SDS011;38518;53.164;5.430;2022-11-20T05:05:42;16.42;;;9.98;;
51618;SDS011;38518;53.164;5.430;2022-11-20T05:08:08;13.90;;;9.70;;
51618;SDS011;38518;53.164;5.430;2022-11-20T05:10:34;14.70;;;9.55;;
51618;SDS011;38518;53.164;5.430;2022-11-20T05:12:59;13.60;;;8.88;;
51618;SDS011;38518;53.164;5.430;2022-11-20T05:15:25;12.45;;;7.88;;
51618;SDS011;38518;53.164;5.430;2022-11-20T05:17:51;14.05;;;8.13;;
51618;SDS011;38518;53.164;5.430;2022-11-20T05:20:17;12.88;;;8.43;;
51618;SDS011;38518;53.164;5.430;2022-11-20T05:22:44;15.27;;;9.27;;
51618;SDS011;38518;53.164;5.430;2022-11-20T05:25:10;14.13;;;9.70;;
51618;SDS011;38518;53.164;5.430;2022-11-20T05:27:36;14.63;;;9.02;;
51618;SDS011;38518;53.164;5.430;2022-11-20T05:30:03;15.82;;;9.10;;
51618;SDS011;38518;53.164;5.430;2022-11-20T05:32:29;15.00;;;9.82;;
51618;SDS011;38518;53.164;5.430;2022-11-20T05:34:55;13.95;;;9.00;;
51618;SDS011;38518;53.164;5.430;2022-11-20T05:37:21;14.32;;;8.35;;
51618;SDS011;38518;53.164;5.430;2022-11-20T05:39:46;13.43;;;8.95;;
51618;SDS011;38518;53.164;5.430;2022-11-20T05:42:12;16.13;;;9.38;;
51618;SDS011;38518;53.164;5.430;2022-11-20T05:45:00;14.25;;;9.30;;
51618;SDS011;38518;53.164;5.430;2022-11-20T05:47:27;13.38;;;9.27;;
51618;SDS011;38518;53.164;5.430;2022-11-20T05:49:53;13.15;;;9.40;;
51618;SDS011;38518;53.164;5.430;2022-11-20T05:52:19;14.63;;;9.63;;
51618;SDS011;38518;53.164;5.430;2022-11-20T05:54:45;14.18;;;9.18;;
51618;SDS011;38518;53.164;5.430;2022-11-20T05:57:11;13.25;;;8.80;;
51618;SDS011;38518;53.164;5.430;2022-11-20T05:59:36;14.50;;;9.20;;
51618;SDS011;38518;53.164;5.430;2022-11-20T06:02:02;16.73;;;10.85;;
51618;SDS011;38518;53.164;5.430;2022-11-20T06:04:28;16.48;;;10.43;;
51618;SDS011;38518;53.164;5.430;2022-11-20T06:06:54;16.08;;;9.75;;
51618;SDS011;38518;53.164;5.430;2022-11-20T06:09:19;16.23;;;10.55;;
51618;SDS011;38518;53.164;5.430;2022-11-20T06:11:45;18.05;;;10.13;;
51618;SDS011;38518;53.164;5.430;2022-11-20T06:14:11;16.60;;;10.43;;
51618;SDS011;38518;53.164;5.430;2022-11-20T06:16:36;17.55;;;9.95;;
51618;SDS011;38518;53.164;5.430;2022-11-20T06:19:02;16.13;;;10.45;;
51618;SDS011;38518;53.164;5.430;2022-11-20T06:21:27;16.77;;;10.30;;
51618;SDS011;38518;53.164;5.430;2022-11-20T06:23:53;15.07;;;10.05;;
51618;SDS011;38518;53.164;5.430;2022-11-20T06:26:20;15.60;;;9.70;;
51618;SDS011;38518;53.164;5.430;2022-11-20T06:28:47;14.65;;;9.80;;
51618;SDS011;38518;53.164;5.430;2022-11-20T06:31:14;15.15;;;10.30;;
51618;SDS011;38518;53.164;5.430;2022-11-20T06:33:41;15.20;;;9.98;;
51618;SDS011;38518;53.164;5.430;2022-11-20T06:36:07;17.35;;;12.07;;
51618;SDS011;38518;53.164;5.430;2022-11-20T06:38:35;14.98;;;9.70;;
51618;SDS011;38518;53.164;5.430;2022-11-20T06:41:01;16.02;;;10.13;;
51618;SDS011;38518;53.164;5.430;2022-11-20T06:43:29;15.50;;;10.05;;
51618;SDS011;38518;53.164;5.430;2022-11-20T06:45:55;17.48;;;10.85;;
51618;SDS011;38518;53.164;5.430;2022-11-20T06:48:22;16.05;;;10.27;;
51618;SDS011;38518;53.164;5.430;2022-11-20T06:50:48;14.43;;;10.18;;
51618;SDS011;38518;53.164;5.430;2022-11-20T06:53:14;18.23;;;10.00;;
51618;SDS011;38518;53.164;5.430;2022-11-20T06:55:44;17.88;;;10.23;;
51618;SDS011;38518;53.164;5.430;2022-11-20T06:58:11;16.45;;;10.38;;
51618;SDS011;38518;53.164;5.430;2022-11-20T07:00:38;13.98;;;9.52;;
51618;SDS011;38518;53.164;5.430;2022-11-20T07:03:08;14.85;;;9.43;;
51618;SDS011;38518;53.164;5.430;2022-11-20T07:05:35;15.07;;;10.02;;
51618;SDS011;38518;53.164;5.430;2022-11-20T07:08:02;14.30;;;9.60;;
51618;SDS011;38518;53.164;5.430;2022-11-20T07:10:28;16.17;;;9.43;;
51618;SDS011;38518;53.164;5.430;2022-11-20T07:12:54;16.48;;;10.15;;
51618;SDS011;38518;53.164;5.430;2022-11-20T07:15:20;15.73;;;9.38;;
51618;SDS011;38518;53.164;5.430;2022-11-20T07:17:47;14.82;;;9.32;;
51618;SDS011;38518;53.164;5.430;2022-11-20T07:20:13;15.30;;;9.20;;
51618;SDS011;38518;53.164;5.430;2022-11-20T07:22:40;12.45;;;8.63;;
51618;SDS011;38518;53.164;5.430;2022-11-20T07:25:06;14.48;;;9.38;;
51618;SDS011;38518;53.164;5.430;2022-11-20T07:27:33;14.88;;;10.20;;
51618;SDS011;38518;53.164;5.430;2022-11-20T07:29:59;14.70;;;9.85;;
51618;SDS011;38518;53.164;5.430;2022-11-20T07:32:25;15.68;;;10.18;;
51618;SDS011;38518;53.164;5.430;2022-11-20T07:34:51;14.98;;;10.35;;
51618;SDS011;38518;53.164;5.430;2022-11-20T07:37:17;16.95;;;9.88;;
51618;SDS011;38518;53.164;5.430;2022-11-20T07:39:43;16.90;;;11.27;;
51618;SDS011;38518;53.164;5.430;2022-11-20T07:42:08;15.95;;;10.63;;
51618;SDS011;38518;53.164;5.430;2022-11-20T07:44:35;16.23;;;10.57;;
51618;SDS011;38518;53.164;5.430;2022-11-20T07:47:01;17.13;;;12.32;;
51618;SDS011;38518;53.164;5.430;2022-11-20T07:49:26;19.05;;;11.80;;
51618;SDS011;38518;53.164;5.430;2022-11-20T07:51:53;16.90;;;11.23;;
51618;SDS011;38518;53.164;5.430;2022-11-20T07:54:19;16.92;;;11.57;;
51618;SDS011;38518;53.164;5.430;2022-11-20T07:56:45;15.65;;;10.95;;
51618;SDS011;38518;53.164;5.430;2022-11-20T07:59:11;15.73;;;9.90;;
51618;SDS011;38518;53.164;5.430;2022-11-20T08:01:40;15.88;;;11.45;;
51618;SDS011;38518;53.164;5.430;2022-11-20T08:04:06;14.52;;;10.35;;
51618;SDS011;38518;53.164;5.430;2022-11-20T08:06:32;14.73;;;10.68;;
51618;SDS011;38518;53.164;5.430;2022-11-20T08:08:58;15.70;;;10.75;;
51618;SDS011;38518;53.164;5.430;2022-11-20T08:11:23;16.80;;;11.00;;
51618;SDS011;38518;53.164;5.430;2022-11-20T08:14:08;16.08;;;10.38;;
51618;SDS011;38518;53.164;5.430;2022-11-20T08:16:36;14.40;;;10.32;;
51618;SDS011;38518;53.164;5.430;2022-11-20T08:19:06;14.70;;;10.52;;
51618;SDS011;38518;53.164;5.430;2022-11-20T08:21:32;15.00;;;9.57;;
51618;SDS011;38518;53.164;5.430;2022-11-20T08:23:58;15.30;;;9.75;;
51618;SDS011;38518;53.164;5.430;2022-11-20T08:26:24;15.02;;;10.68;;
51618;SDS011;38518;53.164;5.430;2022-11-20T08:28:57;14.68;;;10.65;;
51618;SDS011;38518;53.164;5.430;2022-11-20T08:31:24;14.57;;;9.77;;
51618;SDS011;38518;53.164;5.430;2022-11-20T08:33:51;14.75;;;10.68;;
51618;SDS011;38518;53.164;5.430;2022-11-20T08:36:17;15.52;;;9.88;;
51618;SDS011;38518;53.164;5.430;2022-11-20T08:38:51;15.45;;;13.00;;
51618;SDS011;38518;53.164;5.430;2022-11-20T08:41:18;14.98;;;10.70;;
51618;SDS011;38518;53.164;5.430;2022-11-20T08:43:50;14.18;;;10.63;;
51618;SDS011;38518;53.164;5.430;2022-11-20T08:46:17;14.27;;;10.73;;
51618;SDS011;38518;53.164;5.430;2022-11-20T08:48:44;14.02;;;10.93;;
51618;SDS011;38518;53.164;5.430;2022-11-20T08:51:10;17.27;;;11.55;;
51618;SDS011;38518;53.164;5.430;2022-11-20T08:53:37;17.27;;;10.48;;
51618;SDS011;38518;53.164;5.430;2022-11-20T08:56:03;14.93;;;10.70;;
51618;SDS011;38518;53.164;5.430;2022-11-20T08:58:29;16.98;;;11.05;;
51618;SDS011;38518;53.164;5.430;2022-11-20T09:00:55;13.35;;;11.80;;
51618;SDS011;38518;53.164;5.430;2022-11-20T09:03:20;15.40;;;11.52;;
51618;SDS011;38518;53.164;5.430;2022-11-20T09:05:46;15.85;;;11.32;;
51618;SDS011;38518;53.164;5.430;2022-11-20T09:08:12;13.90;;;10.95;;
51618;SDS011;38518;53.164;5.430;2022-11-20T09:10:38;18.77;;;11.52;;
51618;SDS011;38518;53.164;5.430;2022-11-20T09:13:06;16.05;;;11.82;;
51618;SDS011;38518;53.164;5.430;2022-11-20T09:15:32;14.40;;;10.25;;
51618;SDS011;38518;53.164;5.430;2022-11-20T09:17:59;15.93;;;11.18;;
51618;SDS011;38518;53.164;5.430;2022-11-20T09:20:27;15.85;;;10.85;;
51618;SDS011;38518;53.164;5.430;2022-11-20T09:22:55;14.02;;;10.25;;
51618;SDS011;38518;53.164;5.430;2022-11-20T09:25:21;14.30;;;10.57;;
51618;SDS011;38518;53.164;5.430;2022-11-20T09:27:47;12.60;;;9.80;;
51618;SDS011;38518;53.164;5.430;2022-11-20T09:30:14;13.13;;;11.75;;
51618;SDS011;38518;53.164;5.430;2022-11-20T09:32:40;13.13;;;11.73;;
51618;SDS011;38518;53.164;5.430;2022-11-20T09:35:06;11.70;;;9.25;;
51618;SDS011;38518;53.164;5.430;2022-11-20T09:37:32;13.95;;;10.10;;
51618;SDS011;38518;53.164;5.430;2022-11-20T09:39:58;11.93;;;9.98;;
51618;SDS011;38518;53.164;5.430;2022-11-20T09:56:12;12.15;;;8.82;;
51618;SDS011;38518;53.164;5.430;2022-11-20T09:58:43;11.77;;;9.57;;
51618;SDS011;38518;53.164;5.430;2022-11-20T10:01:14;11.45;;;8.82;;
51618;SDS011;38518;53.164;5.430;2022-11-20T10:06:39;11.70;;;10.52;;
51618;SDS011;38518;53.164;5.430;2022-11-20T10:11:41;11.20;;;8.95;;
51618;SDS011;38518;53.164;5.430;2022-11-20T10:22:54;11.63;;;10.43;;
51618;SDS011;38518;53.164;5.430;2022-11-20T10:28:32;11.73;;;8.90;;
51618;SDS011;38518;53.164;5.430;2022-11-20T10:31:02;11.25;;;8.85;;
51618;SDS011;38518;53.164;5.430;2022-11-20T10:33:34;11.15;;;9.82;;
51618;SDS011;38518;53.164;5.430;2022-11-20T10:36:09;13.10;;;8.48;;
51618;SDS011;38518;53.164;5.430;2022-11-20T10:38:37;9.90;;;8.90;;
51618;SDS011;38518;53.164;5.430;2022-11-20T10:41:20;9.70;;;8.38;;
51618;SDS011;38518;53.164;5.430;2022-11-20T10:43:54;10.15;;;9.15;;
51618;SDS011;38518;53.164;5.430;2022-11-20T10:46:23;10.50;;;7.82;;
51618;SDS011;38518;53.164;5.430;2022-11-20T10:48:49;8.23;;;7.40;;
51618;SDS011;38518;53.164;5.430;2022-11-20T11:01:52;11.85;;;9.43;;
51618;SDS011;38518;53.164;5.430;2022-11-20T11:07:08;10.02;;;8.85;;
51618;SDS011;38518;53.164;5.430;2022-11-20T11:09:39;11.27;;;9.35;;
51618;SDS011;38518;53.164;5.430;2022-11-20T11:12:08;10.38;;;9.38;;
51618;SDS011;38518;53.164;5.430;2022-11-20T11:15:11;10.55;;;9.43;;
51618;SDS011;38518;53.164;5.430;2022-11-20T11:17:31;10.82;;;9.30;;
51618;SDS011;38518;53.164;5.430;2022-11-20T11:19:59;10.43;;;9.02;;
51618;SDS011;38518;53.164;5.430;2022-11-20T11:22:29;9.70;;;8.80;;
51618;SDS011;38518;53.164;5.430;2022-11-20T11:24:56;9.90;;;8.90;;
51618;SDS011;38518;53.164;5.430;2022-11-20T11:27:22;9.38;;;8.48;;
51618;SDS011;38518;53.164;5.430;2022-11-20T11:29:48;9.38;;;8.48;;
51618;SDS011;38518;53.164;5.430;2022-11-20T11:32:22;10.07;;;9.07;;
51618;SDS011;38518;53.164;5.430;2022-11-20T11:35:02;10.52;;;9.52;;
51618;SDS011;38518;53.164;5.430;2022-11-20T11:37:33;10.40;;;9.40;;
51618;SDS011;38518;53.164;5.430;2022-11-20T11:40:01;10.70;;;9.70;;
51618;SDS011;38518;53.164;5.430;2022-11-20T11:42:28;12.75;;;9.38;;
51618;SDS011;38518;53.164;5.430;2022-11-20T11:44:55;12.85;;;10.32;;
51618;SDS011;38518;53.164;5.430;2022-11-20T11:50:18;13.00;;;10.48;;
51618;SDS011;38518;53.164;5.430;2022-11-20T11:55:43;10.75;;;9.45;;
51618;SDS011;38518;53.164;5.430;2022-11-20T12:04:20;11.50;;;9.27;;
51618;SDS011;38518;53.164;5.430;2022-11-20T12:07:01;10.60;;;9.60;;
51618;SDS011;38518;53.164;5.430;2022-11-20T12:09:41;12.45;;;9.60;;
51618;SDS011;38518;53.164;5.430;2022-11-20T12:12:16;11.45;;;10.35;;
51618;SDS011;38518;53.164;5.430;2022-11-20T12:14:46;13.00;;;9.50;;
51618;SDS011;38518;53.164;5.430;2022-11-20T12:17:15;13.00;;;9.48;;
51618;SDS011;38518;53.164;5.430;2022-11-20T12:19:42;10.95;;;9.90;;
51618;SDS011;38518;53.164;5.430;2022-11-20T12:25:25;11.40;;;10.25;;
51618;SDS011;38518;53.164;5.430;2022-11-20T12:39:29;12.95;;;10.13;;
51618;SDS011;38518;53.164;5.430;2022-11-20T12:53:45;13.32;;;9.60;;
51618;SDS011;38518;53.164;5.430;2022-11-20T13:06:48;14.27;;;9.88;;
51618;SDS011;38518;53.164;5.430;2022-11-20T13:09:16;11.68;;;10.55;;
51618;SDS011;38518;53.164;5.430;2022-11-20T13:14:40;12.90;;;9.40;;
51618;SDS011;38518;53.164;5.430;2022-11-20T13:18:11;13.38;;;9.93;;
51618;SDS011;38518;53.164;5.430;2022-11-20T13:20:12;12.55;;;10.18;;
51618;SDS011;38518;53.164;5.430;2022-11-20T13:22:45;12.60;;;9.63;;
51618;SDS011;38518;53.164;5.430;2022-11-20T13:27:55;11.38;;;9.45;;
51618;SDS011;38518;53.164;5.430;2022-11-20T13:30:24;12.10;;;9.82;;
51618;SDS011;38518;53.164;5.430;2022-11-20T13:33:04;13.10;;;9.65;;
51618;SDS011;38518;53.164;5.430;2022-11-20T13:35:40;12.70;;;9.57;;
51618;SDS011;38518;53.164;5.430;2022-11-20T13:38:11;11.82;;;9.52;;
51618;SDS011;38518;53.164;5.430;2022-11-20T13:41:00;13.90;;;9.68;;
51618;SDS011;38518;53.164;5.430;2022-11-20T13:43:48;11.30;;;9.43;;
51618;SDS011;38518;53.164;5.430;2022-11-20T13:46:14;11.70;;;9.05;;
51618;SDS011;38518;53.164;5.430;2022-11-20T13:48:47;11.38;;;10.27;;
51618;SDS011;38518;53.164;5.430;2022-11-20T14:00:20;10.45;;;9.00;;
51618;SDS011;38518;53.164;5.430;2022-11-20T14:05:35;14.80;;;9.65;;
51618;SDS011;38518;53.164;5.430;2022-11-20T14:08:04;13.05;;;11.55;;
51618;SDS011;38518;53.164;5.430;2022-11-20T14:10:31;13.25;;;9.88;;
51618;SDS011;38518;53.164;5.430;2022-11-20T14:12:57;12.85;;;9.68;;
51618;SDS011;38518;53.164;5.430;2022-11-20T14:15:28;12.82;;;11.25;;
51618;SDS011;38518;53.164;5.430;2022-11-20T14:17:58;14.70;;;10.88;;
51618;SDS011;38518;53.164;5.430;2022-11-20T14:20:27;14.02;;;12.52;;
51618;SDS011;38518;53.164;5.430;2022-11-20T14:22:56;13.57;;;10.98;;
51618;SDS011;38518;53.164;5.430;2022-11-20T14:25:23;13.63;;;12.32;;
51618;SDS011;38518;53.164;5.430;2022-11-20T14:27:56;14.40;;;10.35;;
51618;SDS011;38518;53.164;5.430;2022-11-20T14:30:24;15.05;;;11.15;;
51618;SDS011;38518;53.164;5.430;2022-11-20T14:32:53;13.35;;;11.95;;
51618;SDS011;38518;53.164;5.430;2022-11-20T14:35:26;12.57;;;11.27;;
51618;SDS011;38518;53.164;5.430;2022-11-20T14:37:54;14.93;;;10.23;;
51618;SDS011;38518;53.164;5.430;2022-11-20T14:40:26;13.38;;;12.05;;
51618;SDS011;38518;53.164;5.430;2022-11-20T14:43:04;12.05;;;9.55;;
51618;SDS011;38518;53.164;5.430;2022-11-20T14:45:42;13.82;;;10.27;;
51618;SDS011;38518;53.164;5.430;2022-11-20T14:48:09;13.43;;;9.93;;
51618;SDS011;38518;53.164;5.430;2022-11-20T14:50:37;13.40;;;10.50;;
51618;SDS011;38518;53.164;5.430;2022-11-20T14:53:04;13.38;;;10.43;;
51618;SDS011;38518;53.164;5.430;2022-11-20T14:55:34;13.23;;;11.93;;
51618;SDS011;38518;53.164;5.430;2022-11-20T14:58:24;16.23;;;11.15;;
51618;SDS011;38518;53.164;5.430;2022-11-20T15:00:56;13.10;;;10.45;;
51618;SDS011;38518;53.164;5.430;2022-11-20T15:03:31;14.73;;;10.27;;
51618;SDS011;38518;53.164;5.430;2022-11-20T15:06:05;12.82;;;11.52;;
51618;SDS011;38518;53.164;5.430;2022-11-20T15:08:33;14.60;;;9.98;;
51618;SDS011;38518;53.164;5.430;2022-11-20T15:10:59;14.55;;;10.65;;
51618;SDS011;38518;53.164;5.430;2022-11-20T15:13:36;14.73;;;11.18;;
51618;SDS011;38518;53.164;5.430;2022-11-20T15:16:03;14.32;;;10.68;;
51618;SDS011;38518;53.164;5.430;2022-11-20T15:18:36;13.27;;;11.88;;
51618;SDS011;38518;53.164;5.430;2022-11-20T15:21:07;16.27;;;11.20;;
51618;SDS011;38518;53.164;5.430;2022-11-20T15:23:35;14.27;;;10.60;;
51618;SDS011;38518;53.164;5.430;2022-11-20T15:26:01;14.45;;;10.93;;
51618;SDS011;38518;53.164;5.430;2022-11-20T15:28:35;14.68;;;11.00;;
51618;SDS011;38518;53.164;5.430;2022-11-20T15:33:31;17.98;;;11.75;;
51618;SDS011;38518;53.164;5.430;2022-11-20T15:35:58;14.43;;;11.55;;
51618;SDS011;38518;53.164;5.430;2022-11-20T15:38:25;17.30;;;12.15;;
51618;SDS011;38518;53.164;5.430;2022-11-20T15:40:51;16.05;;;11.88;;
51618;SDS011;38518;53.164;5.430;2022-11-20T15:43:16;15.98;;;12.15;;
51618;SDS011;38518;53.164;5.430;2022-11-20T15:45:43;17.48;;;11.27;;
51618;SDS011;38518;53.164;5.430;2022-11-20T15:48:12;15.43;;;12.65;;
51618;SDS011;38518;53.164;5.430;2022-11-20T15:50:49;15.50;;;11.20;;
51618;SDS011;38518;53.164;5.430;2022-11-20T15:53:22;14.35;;;12.85;;
51618;SDS011;38518;53.164;5.430;2022-11-20T15:55:48;15.05;;;11.00;;
51618;SDS011;38518;53.164;5.430;2022-11-20T15:58:14;11.80;;;8.80;;
51618;SDS011;38518;53.164;5.430;2022-11-20T16:00:42;15.27;;;11.50;;
51618;SDS011;38518;53.164;5.430;2022-11-20T16:03:11;16.55;;;11.25;;
51618;SDS011;38518;53.164;5.430;2022-11-20T16:05:38;16.33;;;11.82;;
51618;SDS011;38518;53.164;5.430;2022-11-20T16:08:04;15.93;;;11.77;;
51618;SDS011;38518;53.164;5.430;2022-11-20T16:10:30;14.60;;;11.05;;
51618;SDS011;38518;53.164;5.430;2022-11-20T16:12:55;17.35;;;11.52;;
51618;SDS011;38518;53.164;5.430;2022-11-20T16:15:39;14.88;;;10.60;;
51618;SDS011;38518;53.164;5.430;2022-11-20T16:18:12;15.63;;;11.85;;
51618;SDS011;38518;53.164;5.430;2022-11-20T16:20:39;15.30;;;11.30;;
51618;SDS011;38518;53.164;5.430;2022-11-20T16:23:05;16.08;;;12.02;;
51618;SDS011;38518;53.164;5.430;2022-11-20T16:25:32;15.90;;;11.85;;
51618;SDS011;38518;53.164;5.430;2022-11-20T16:27:58;15.38;;;11.35;;
51618;SDS011;38518;53.164;5.430;2022-11-20T16:30:24;15.75;;;11.68;;
51618;SDS011;38518;53.164;5.430;2022-11-20T16:32:50;17.27;;;11.98;;
51618;SDS011;38518;53.164;5.430;2022-11-20T16:35:16;15.95;;;12.52;;